CLVO2: Canadian River, Calvin, OKla

Data processed at Sun Apr 30 2017 22:19


All information presented herein is the property of the government of the United States of America and may be revised or deleted at any time without prior notice.
Dissemination of this information without the expressed written consent of the Public Affairs Office, Tulsa District U.S. Army Corps of Engineers is strictly prohibited.
These data are gathered electronically and, as presented, have not undergone any form of quality control. These data are not guaranteed to be valid or correct.
Go to home page.
Go to station list.
Go to station map.

Upstream stations:

Downstream station:
Previous Day
Next Day
Current Day
    
SHEF ID:       CLVO2     Canadian River at Calvin, OK
STATION TYPE:  

               PRECIP     STAGE  STAGE(2)  RIV-FLOW  BAT-LOAD
                   in        ft        ft       cfs      volt
              Ccp-Rev   Ccp-Rev   Ccp-Rev   Ccp-Rev   Ccp-Rev
(US/Central)
04/30 00:00      0.00      7.56      7.68      1450     13.13
04/30 01:00      0.00      7.55      7.65      1450     13.13
04/30 02:00      0.00      7.56      7.66      1450     13.13
04/30 03:00      0.00      7.60      7.71      1500     13.05
04/30 04:00      0.00      7.66      7.74      1570     13.05
04/30 05:00      0.00      7.71      7.81      1630     13.05
04/30 06:00      0.00      7.78      7.86      1700     13.05
04/30 07:00      0.00      7.82      7.91      1750     12.97
04/30 08:00      0.00      7.82      7.95      1750     12.97
04/30 09:00      0.00      7.83      7.96      1760     13.68
04/30 10:00      0.00      7.85      7.96      1780     13.92
04/30 11:00      0.00      7.83      7.94      1760     14.08
04/30 12:00      0.00      7.75      7.93      1670     14.08
04/30 13:00      0.00      7.70      7.88      1620     14.08
04/30 14:00      0.00      7.94      8.17      1880     14.24
04/30 15:00      0.00      8.57      8.92      2670     14.08
04/30 16:00      0.00      8.77      9.12      2950     14.00
04/30 17:00      0.00      8.90      9.23      3140     14.00
04/30 18:00      0.00      9.03      9.44      3340     14.00
04/30 19:00      0.00      9.08      9.42      3430     14.00
04/30 20:00      0.00      9.18      9.41      3600     14.00
04/30 21:00      0.00      9.25      9.59      3710     13.53
04/30 22:00      ----      ----      ----      ----      ----
04/30 23:00      ----      ----      ----      ----      ----